sensor_id;sensor_type;location;lat;lon;timestamp;temperature;humidity
71084;DHT22;58741;52.672;13.548;2023-07-31T00:00:27;15.50;99.90
71084;DHT22;58741;52.672;13.548;2023-07-31T00:02:52;15.50;99.90
71084;DHT22;58741;52.672;13.548;2023-07-31T00:05:18;15.50;99.90
71084;DHT22;58741;52.672;13.548;2023-07-31T00:07:43;15.50;99.90
71084;DHT22;58741;52.672;13.548;2023-07-31T00:10:09;15.50;99.90
71084;DHT22;58741;52.672;13.548;2023-07-31T00:12:35;15.50;99.90
71084;DHT22;58741;52.672;13.548;2023-07-31T00:15:01;15.50;99.90
71084;DHT22;58741;52.672;13.548;2023-07-31T00:17:26;15.50;99.90
71084;DHT22;58741;52.672;13.548;2023-07-31T00:19:52;15.50;99.90
71084;DHT22;58741;52.672;13.548;2023-07-31T00:22:17;15.50;99.90
71084;DHT22;58741;52.672;13.548;2023-07-31T00:24:43;15.40;99.90
71084;DHT22;58741;52.672;13.548;2023-07-31T00:27:08;15.40;99.90
71084;DHT22;58741;52.672;13.548;2023-07-31T00:29:34;15.40;99.90
71084;DHT22;58741;52.672;13.548;2023-07-31T00:31:59;15.40;99.90
71084;DHT22;58741;52.672;13.548;2023-07-31T00:34:25;15.40;99.90
71084;DHT22;58741;52.672;13.548;2023-07-31T00:36:50;15.30;99.90
71084;DHT22;58741;52.672;13.548;2023-07-31T00:39:16;15.30;99.90
71084;DHT22;58741;52.672;13.548;2023-07-31T00:41:44;15.20;99.90
71084;DHT22;58741;52.672;13.548;2023-07-31T00:44:09;15.20;99.90
71084;DHT22;58741;52.672;13.548;2023-07-31T00:46:35;15.20;99.90
71084;DHT22;58741;52.672;13.548;2023-07-31T00:49:02;15.10;99.90
71084;DHT22;58741;52.672;13.548;2023-07-31T00:51:28;15.10;99.90
71084;DHT22;58741;52.672;13.548;2023-07-31T00:53:53;15.10;99.90
71084;DHT22;58741;52.672;13.548;2023-07-31T00:56:23;15.10;99.90
71084;DHT22;58741;52.672;13.548;2023-07-31T00:58:49;15.00;99.90
71084;DHT22;58741;52.672;13.548;2023-07-31T01:01:15;15.10;99.90
71084;DHT22;58741;52.672;13.548;2023-07-31T01:03:41;15.00;99.90
71084;DHT22;58741;52.672;13.548;2023-07-31T01:06:14;15.00;99.90
71084;DHT22;58741;52.672;13.548;2023-07-31T01:08:58;15.00;99.90
71084;DHT22;58741;52.672;13.548;2023-07-31T01:11:32;15.00;99.90
71084;DHT22;58741;52.672;13.548;2023-07-31T01:13:58;15.00;99.90
71084;DHT22;58741;52.672;13.548;2023-07-31T01:16:25;15.00;99.90
71084;DHT22;58741;52.672;13.548;2023-07-31T01:18:52;15.00;99.90
71084;DHT22;58741;52.672;13.548;2023-07-31T01:26:34;15.00;99.90
71084;DHT22;58741;52.672;13.548;2023-07-31T01:29:07;15.00;99.90
71084;DHT22;58741;52.672;13.548;2023-07-31T01:31:35;15.00;99.90
71084;DHT22;58741;52.672;13.548;2023-07-31T01:34:02;15.00;99.90
71084;DHT22;58741;52.672;13.548;2023-07-31T01:36:29;15.10;99.90
71084;DHT22;58741;52.672;13.548;2023-07-31T01:38:59;15.00;99.90
71084;DHT22;58741;52.672;13.548;2023-07-31T01:41:25;15.10;99.90
71084;DHT22;58741;52.672;13.548;2023-07-31T01:43:51;15.10;99.90
71084;DHT22;58741;52.672;13.548;2023-07-31T01:46:17;15.10;99.90
71084;DHT22;58741;52.672;13.548;2023-07-31T01:48:42;15.10;99.90
71084;DHT22;58741;52.672;13.548;2023-07-31T01:51:08;15.10;99.90
71084;DHT22;58741;52.672;13.548;2023-07-31T01:53:33;15.10;99.90
71084;DHT22;58741;52.672;13.548;2023-07-31T01:55:59;15.10;99.90
71084;DHT22;58741;52.672;13.548;2023-07-31T01:58:25;15.10;99.90
71084;DHT22;58741;52.672;13.548;2023-07-31T02:00:50;15.10;99.90
71084;DHT22;58741;52.672;13.548;2023-07-31T02:03:16;15.20;99.90
71084;DHT22;58741;52.672;13.548;2023-07-31T02:05:48;15.20;99.90
71084;DHT22;58741;52.672;13.548;2023-07-31T02:08:14;15.20;99.90
71084;DHT22;58741;52.672;13.548;2023-07-31T02:10:40;15.20;99.90
71084;DHT22;58741;52.672;13.548;2023-07-31T02:13:06;15.20;99.90
71084;DHT22;58741;52.672;13.548;2023-07-31T02:15:32;15.20;99.90
71084;DHT22;58741;52.672;13.548;2023-07-31T02:17:57;15.20;99.90
71084;DHT22;58741;52.672;13.548;2023-07-31T02:20:24;15.30;99.90
71084;DHT22;58741;52.672;13.548;2023-07-31T02:22:50;15.30;99.90
71084;DHT22;58741;52.672;13.548;2023-07-31T02:25:16;15.20;99.90
71084;DHT22;58741;52.672;13.548;2023-07-31T02:27:42;15.30;99.90
71084;DHT22;58741;52.672;13.548;2023-07-31T02:30:08;15.30;99.90
71084;DHT22;58741;52.672;13.548;2023-07-31T02:32:34;15.20;99.90
71084;DHT22;58741;52.672;13.548;2023-07-31T02:35:00;15.30;99.90
71084;DHT22;58741;52.672;13.548;2023-07-31T02:37:25;15.30;99.90
71084;DHT22;58741;52.672;13.548;2023-07-31T02:39:51;15.30;99.90
71084;DHT22;58741;52.672;13.548;2023-07-31T02:42:17;15.30;99.90
71084;DHT22;58741;52.672;13.548;2023-07-31T02:44:42;15.30;99.90
71084;DHT22;58741;52.672;13.548;2023-07-31T02:47:08;15.30;99.90
71084;DHT22;58741;52.672;13.548;2023-07-31T02:49:33;15.30;99.90
71084;DHT22;58741;52.672;13.548;2023-07-31T02:51:59;15.30;99.90
71084;DHT22;58741;52.672;13.548;2023-07-31T02:54:25;15.30;99.90
71084;DHT22;58741;52.672;13.548;2023-07-31T02:56:50;15.30;99.90
71084;DHT22;58741;52.672;13.548;2023-07-31T02:59:17;15.30;99.90
71084;DHT22;58741;52.672;13.548;2023-07-31T03:01:42;15.40;99.90
71084;DHT22;58741;52.672;13.548;2023-07-31T03:04:08;15.40;99.90
71084;DHT22;58741;52.672;13.548;2023-07-31T03:06:33;15.40;99.90
71084;DHT22;58741;52.672;13.548;2023-07-31T03:08:59;15.40;99.90
71084;DHT22;58741;52.672;13.548;2023-07-31T03:11:24;15.40;99.90
71084;DHT22;58741;52.672;13.548;2023-07-31T03:13:50;15.40;99.90
71084;DHT22;58741;52.672;13.548;2023-07-31T03:16:15;15.40;99.90
71084;DHT22;58741;52.672;13.548;2023-07-31T03:18:41;15.40;99.90
71084;DHT22;58741;52.672;13.548;2023-07-31T03:21:07;15.40;99.90
71084;DHT22;58741;52.672;13.548;2023-07-31T03:23:32;15.40;99.90
71084;DHT22;58741;52.672;13.548;2023-07-31T03:25:59;15.40;99.90
71084;DHT22;58741;52.672;13.548;2023-07-31T03:28:27;15.40;99.90
71084;DHT22;58741;52.672;13.548;2023-07-31T03:30:53;15.40;99.90
71084;DHT22;58741;52.672;13.548;2023-07-31T03:33:19;15.40;99.90
71084;DHT22;58741;52.672;13.548;2023-07-31T03:35:45;15.40;99.90
71084;DHT22;58741;52.672;13.548;2023-07-31T03:38:10;15.40;99.90
71084;DHT22;58741;52.672;13.548;2023-07-31T03:40:36;15.40;99.90
71084;DHT22;58741;52.672;13.548;2023-07-31T03:43:01;15.40;99.90
71084;DHT22;58741;52.672;13.548;2023-07-31T03:45:27;15.50;99.90
71084;DHT22;58741;52.672;13.548;2023-07-31T03:47:53;15.50;99.90
71084;DHT22;58741;52.672;13.548;2023-07-31T03:50:20;15.50;99.90
71084;DHT22;58741;52.672;13.548;2023-07-31T03:52:46;15.50;99.90
71084;DHT22;58741;52.672;13.548;2023-07-31T03:55:11;15.50;99.90
71084;DHT22;58741;52.672;13.548;2023-07-31T03:57:37;15.50;99.90
71084;DHT22;58741;52.672;13.548;2023-07-31T04:00:03;15.50;99.90
71084;DHT22;58741;52.672;13.548;2023-07-31T04:02:37;15.50;99.90
71084;DHT22;58741;52.672;13.548;2023-07-31T04:05:03;15.50;99.90
71084;DHT22;58741;52.672;13.548;2023-07-31T04:07:28;15.50;99.90
71084;DHT22;58741;52.672;13.548;2023-07-31T04:09:54;15.50;99.90
71084;DHT22;58741;52.672;13.548;2023-07-31T04:12:20;15.50;99.90
71084;DHT22;58741;52.672;13.548;2023-07-31T04:14:45;15.50;99.90
71084;DHT22;58741;52.672;13.548;2023-07-31T04:17:11;15.60;99.90
71084;DHT22;58741;52.672;13.548;2023-07-31T04:19:36;15.50;99.90
71084;DHT22;58741;52.672;13.548;2023-07-31T04:22:02;15.50;99.90
71084;DHT22;58741;52.672;13.548;2023-07-31T04:24:27;15.50;99.90
71084;DHT22;58741;52.672;13.548;2023-07-31T04:26:53;15.50;99.90
71084;DHT22;58741;52.672;13.548;2023-07-31T04:29:19;15.50;99.90
71084;DHT22;58741;52.672;13.548;2023-07-31T04:31:45;15.60;99.90
71084;DHT22;58741;52.672;13.548;2023-07-31T04:34:11;15.60;99.90
71084;DHT22;58741;52.672;13.548;2023-07-31T04:36:37;15.60;99.90
71084;DHT22;58741;52.672;13.548;2023-07-31T04:39:02;15.60;99.90
71084;DHT22;58741;52.672;13.548;2023-07-31T04:41:28;15.60;99.90
71084;DHT22;58741;52.672;13.548;2023-07-31T04:43:54;15.70;99.90
71084;DHT22;58741;52.672;13.548;2023-07-31T04:46:19;15.70;99.90
71084;DHT22;58741;52.672;13.548;2023-07-31T04:48:45;15.70;99.90
71084;DHT22;58741;52.672;13.548;2023-07-31T04:51:10;15.70;99.90
71084;DHT22;58741;52.672;13.548;2023-07-31T04:53:36;15.70;99.90
71084;DHT22;58741;52.672;13.548;2023-07-31T04:56:02;15.80;99.90
71084;DHT22;58741;52.672;13.548;2023-07-31T04:58:28;15.70;99.90
71084;DHT22;58741;52.672;13.548;2023-07-31T05:00:53;15.80;99.90
71084;DHT22;58741;52.672;13.548;2023-07-31T05:03:19;15.80;99.90
71084;DHT22;58741;52.672;13.548;2023-07-31T05:05:44;15.80;99.90
71084;DHT22;58741;52.672;13.548;2023-07-31T05:08:10;15.80;99.90
71084;DHT22;58741;52.672;13.548;2023-07-31T05:10:36;15.80;99.90
71084;DHT22;58741;52.672;13.548;2023-07-31T05:13:01;15.80;99.90
71084;DHT22;58741;52.672;13.548;2023-07-31T05:15:28;15.90;99.90
71084;DHT22;58741;52.672;13.548;2023-07-31T05:17:54;15.90;99.90
71084;DHT22;58741;52.672;13.548;2023-07-31T05:20:20;15.90;99.90
71084;DHT22;58741;52.672;13.548;2023-07-31T05:22:45;15.90;99.90
71084;DHT22;58741;52.672;13.548;2023-07-31T05:25:11;15.90;99.90
71084;DHT22;58741;52.672;13.548;2023-07-31T05:27:36;15.90;99.90
71084;DHT22;58741;52.672;13.548;2023-07-31T05:30:02;16.00;99.90
71084;DHT22;58741;52.672;13.548;2023-07-31T05:32:28;16.00;99.90
71084;DHT22;58741;52.672;13.548;2023-07-31T05:34:54;16.00;99.90
71084;DHT22;58741;52.672;13.548;2023-07-31T05:37:19;16.00;99.90
71084;DHT22;58741;52.672;13.548;2023-07-31T05:39:45;16.10;99.90
71084;DHT22;58741;52.672;13.548;2023-07-31T05:42:11;16.10;99.90
71084;DHT22;58741;52.672;13.548;2023-07-31T05:44:36;16.10;99.90
71084;DHT22;58741;52.672;13.548;2023-07-31T05:47:02;16.20;99.90
71084;DHT22;58741;52.672;13.548;2023-07-31T05:49:27;16.20;99.90
71084;DHT22;58741;52.672;13.548;2023-07-31T05:51:53;16.20;99.90
71084;DHT22;58741;52.672;13.548;2023-07-31T05:54:19;16.30;99.90
71084;DHT22;58741;52.672;13.548;2023-07-31T05:56:44;16.30;99.90
71084;DHT22;58741;52.672;13.548;2023-07-31T05:59:12;16.30;99.90
71084;DHT22;58741;52.672;13.548;2023-07-31T06:01:38;16.30;99.90
71084;DHT22;58741;52.672;13.548;2023-07-31T06:04:04;16.40;99.90
71084;DHT22;58741;52.672;13.548;2023-07-31T06:06:30;16.40;99.90
71084;DHT22;58741;52.672;13.548;2023-07-31T06:08:55;16.40;99.90
71084;DHT22;58741;52.672;13.548;2023-07-31T06:11:21;16.40;99.90
71084;DHT22;58741;52.672;13.548;2023-07-31T06:13:47;16.50;99.90
71084;DHT22;58741;52.672;13.548;2023-07-31T06:16:14;16.50;99.90
71084;DHT22;58741;52.672;13.548;2023-07-31T06:18:39;16.50;99.90
71084;DHT22;58741;52.672;13.548;2023-07-31T06:21:05;16.50;99.90
71084;DHT22;58741;52.672;13.548;2023-07-31T06:23:31;16.50;99.90
71084;DHT22;58741;52.672;13.548;2023-07-31T06:25:57;16.50;99.90
71084;DHT22;58741;52.672;13.548;2023-07-31T06:28:30;16.60;99.90
71084;DHT22;58741;52.672;13.548;2023-07-31T06:31:00;16.60;99.90
71084;DHT22;58741;52.672;13.548;2023-07-31T06:33:26;16.70;99.90
71084;DHT22;58741;52.672;13.548;2023-07-31T06:35:52;16.70;99.90
71084;DHT22;58741;52.672;13.548;2023-07-31T06:38:27;16.70;99.90
71084;DHT22;58741;52.672;13.548;2023-07-31T06:40:53;16.80;99.90
71084;DHT22;58741;52.672;13.548;2023-07-31T06:43:18;16.80;99.90
71084;DHT22;58741;52.672;13.548;2023-07-31T06:45:44;16.90;99.90
71084;DHT22;58741;52.672;13.548;2023-07-31T06:48:11;16.90;99.90
71084;DHT22;58741;52.672;13.548;2023-07-31T06:50:36;17.00;99.90
71084;DHT22;58741;52.672;13.548;2023-07-31T06:53:02;17.00;99.90
71084;DHT22;58741;52.672;13.548;2023-07-31T06:55:28;17.00;99.90
71084;DHT22;58741;52.672;13.548;2023-07-31T06:57:55;17.00;99.90
71084;DHT22;58741;52.672;13.548;2023-07-31T07:00:21;17.00;99.90
71084;DHT22;58741;52.672;13.548;2023-07-31T07:02:48;17.00;99.90
71084;DHT22;58741;52.672;13.548;2023-07-31T07:05:14;17.10;99.90
71084;DHT22;58741;52.672;13.548;2023-07-31T07:07:40;17.10;99.90
71084;DHT22;58741;52.672;13.548;2023-07-31T07:10:06;17.10;99.90
71084;DHT22;58741;52.672;13.548;2023-07-31T07:12:33;17.10;99.90
71084;DHT22;58741;52.672;13.548;2023-07-31T07:14:59;17.10;99.90
71084;DHT22;58741;52.672;13.548;2023-07-31T07:17:29;17.10;99.90
71084;DHT22;58741;52.672;13.548;2023-07-31T07:19:59;17.10;99.90
71084;DHT22;58741;52.672;13.548;2023-07-31T07:22:25;17.20;99.90
71084;DHT22;58741;52.672;13.548;2023-07-31T07:24:51;17.20;99.90
71084;DHT22;58741;52.672;13.548;2023-07-31T07:27:16;17.20;99.90
71084;DHT22;58741;52.672;13.548;2023-07-31T07:29:42;17.20;99.90
71084;DHT22;58741;52.672;13.548;2023-07-31T07:32:08;17.20;99.90
71084;DHT22;58741;52.672;13.548;2023-07-31T07:34:34;17.20;99.90
71084;DHT22;58741;52.672;13.548;2023-07-31T07:36:59;17.20;99.90
71084;DHT22;58741;52.672;13.548;2023-07-31T07:39:25;17.20;99.90
71084;DHT22;58741;52.672;13.548;2023-07-31T07:41:50;17.20;99.90
71084;DHT22;58741;52.672;13.548;2023-07-31T07:44:16;17.30;99.90
71084;DHT22;58741;52.672;13.548;2023-07-31T07:46:42;17.30;99.90
71084;DHT22;58741;52.672;13.548;2023-07-31T07:49:07;17.30;99.90
71084;DHT22;58741;52.672;13.548;2023-07-31T07:51:33;17.30;99.90
71084;DHT22;58741;52.672;13.548;2023-07-31T07:53:59;17.30;99.90
71084;DHT22;58741;52.672;13.548;2023-07-31T07:56:26;17.30;99.90
71084;DHT22;58741;52.672;13.548;2023-07-31T07:58:51;17.30;99.90
71084;DHT22;58741;52.672;13.548;2023-07-31T08:01:17;17.30;99.90
71084;DHT22;58741;52.672;13.548;2023-07-31T08:03:42;17.40;99.90
71084;DHT22;58741;52.672;13.548;2023-07-31T08:06:09;17.40;99.90
71084;DHT22;58741;52.672;13.548;2023-07-31T08:08:35;17.40;99.90
71084;DHT22;58741;52.672;13.548;2023-07-31T08:11:01;17.50;99.90
71084;DHT22;58741;52.672;13.548;2023-07-31T08:13:27;17.50;99.90
71084;DHT22;58741;52.672;13.548;2023-07-31T08:15:52;17.60;99.90
71084;DHT22;58741;52.672;13.548;2023-07-31T08:18:18;17.60;99.90
71084;DHT22;58741;52.672;13.548;2023-07-31T08:20:44;17.70;99.90
71084;DHT22;58741;52.672;13.548;2023-07-31T08:23:10;17.80;99.90
71084;DHT22;58741;52.672;13.548;2023-07-31T08:25:36;17.70;99.90
71084;DHT22;58741;52.672;13.548;2023-07-31T08:28:03;17.80;99.90
71084;DHT22;58741;52.672;13.548;2023-07-31T08:30:28;17.70;99.90
71084;DHT22;58741;52.672;13.548;2023-07-31T08:32:54;17.70;99.90
71084;DHT22;58741;52.672;13.548;2023-07-31T08:35:20;17.80;99.90
71084;DHT22;58741;52.672;13.548;2023-07-31T08:37:45;17.80;99.90
71084;DHT22;58741;52.672;13.548;2023-07-31T08:40:11;17.80;99.90
71084;DHT22;58741;52.672;13.548;2023-07-31T08:42:47;17.90;99.90
71084;DHT22;58741;52.672;13.548;2023-07-31T08:45:14;17.80;99.90
71084;DHT22;58741;52.672;13.548;2023-07-31T08:47:44;17.80;99.90
71084;DHT22;58741;52.672;13.548;2023-07-31T08:50:12;17.80;99.90
71084;DHT22;58741;52.672;13.548;2023-07-31T08:52:38;17.80;99.90
71084;DHT22;58741;52.672;13.548;2023-07-31T08:55:05;17.90;99.90
71084;DHT22;58741;52.672;13.548;2023-07-31T08:57:31;17.90;99.90
71084;DHT22;58741;52.672;13.548;2023-07-31T08:59:57;17.90;99.90
71084;DHT22;58741;52.672;13.548;2023-07-31T09:02:24;18.00;99.90
71084;DHT22;58741;52.672;13.548;2023-07-31T09:04:53;18.00;99.90
71084;DHT22;58741;52.672;13.548;2023-07-31T09:07:18;18.00;99.90
71084;DHT22;58741;52.672;13.548;2023-07-31T09:09:45;17.90;99.90
71084;DHT22;58741;52.672;13.548;2023-07-31T09:12:11;18.00;99.90
71084;DHT22;58741;52.672;13.548;2023-07-31T09:14:38;18.00;99.90
71084;DHT22;58741;52.672;13.548;2023-07-31T09:17:04;18.00;99.90
71084;DHT22;58741;52.672;13.548;2023-07-31T09:19:34;18.00;99.90
71084;DHT22;58741;52.672;13.548;2023-07-31T09:22:03;18.00;99.90
71084;DHT22;58741;52.672;13.548;2023-07-31T09:24:29;18.10;99.90
71084;DHT22;58741;52.672;13.548;2023-07-31T09:26:56;18.20;99.90
71084;DHT22;58741;52.672;13.548;2023-07-31T09:29:22;18.20;99.90
71084;DHT22;58741;52.672;13.548;2023-07-31T09:31:48;18.20;99.90
71084;DHT22;58741;52.672;13.548;2023-07-31T09:34:14;18.30;99.90
71084;DHT22;58741;52.672;13.548;2023-07-31T09:36:47;18.20;99.90
71084;DHT22;58741;52.672;13.548;2023-07-31T09:39:14;18.20;99.90
71084;DHT22;58741;52.672;13.548;2023-07-31T09:41:43;18.20;99.90
71084;DHT22;58741;52.672;13.548;2023-07-31T09:44:09;18.20;99.90
71084;DHT22;58741;52.672;13.548;2023-07-31T09:46:35;18.20;99.90
71084;DHT22;58741;52.672;13.548;2023-07-31T09:49:13;18.20;99.90
71084;DHT22;58741;52.672;13.548;2023-07-31T09:51:41;18.20;99.90
71084;DHT22;58741;52.672;13.548;2023-07-31T09:54:10;18.20;99.90
71084;DHT22;58741;52.672;13.548;2023-07-31T09:56:47;18.20;99.90
71084;DHT22;58741;52.672;13.548;2023-07-31T09:59:15;18.20;99.90
71084;DHT22;58741;52.672;13.548;2023-07-31T10:01:43;18.20;99.90
71084;DHT22;58741;52.672;13.548;2023-07-31T10:04:12;18.20;99.90
71084;DHT22;58741;52.672;13.548;2023-07-31T10:06:40;18.20;99.90
71084;DHT22;58741;52.672;13.548;2023-07-31T10:09:09;18.20;99.90
71084;DHT22;58741;52.672;13.548;2023-07-31T10:11:46;18.20;99.90
71084;DHT22;58741;52.672;13.548;2023-07-31T10:14:18;18.20;99.90
71084;DHT22;58741;52.672;13.548;2023-07-31T10:16:45;18.30;99.90
71084;DHT22;58741;52.672;13.548;2023-07-31T10:19:10;18.30;99.90
71084;DHT22;58741;52.672;13.548;2023-07-31T10:21:37;18.40;99.90
71084;DHT22;58741;52.672;13.548;2023-07-31T10:24:07;18.50;99.90
71084;DHT22;58741;52.672;13.548;2023-07-31T10:26:34;18.50;99.90
71084;DHT22;58741;52.672;13.548;2023-07-31T10:29:01;18.60;99.90
71084;DHT22;58741;52.672;13.548;2023-07-31T10:31:28;18.60;99.90
71084;DHT22;58741;52.672;13.548;2023-07-31T10:33:55;18.60;99.90
71084;DHT22;58741;52.672;13.548;2023-07-31T10:36:21;18.60;99.90
71084;DHT22;58741;52.672;13.548;2023-07-31T10:38:50;18.60;99.90
71084;DHT22;58741;52.672;13.548;2023-07-31T10:41:18;18.60;99.90
71084;DHT22;58741;52.672;13.548;2023-07-31T10:43:46;18.60;99.90
71084;DHT22;58741;52.672;13.548;2023-07-31T10:46:13;18.60;99.90
71084;DHT22;58741;52.672;13.548;2023-07-31T10:48:40;18.60;99.90
71084;DHT22;58741;52.672;13.548;2023-07-31T10:51:10;18.60;99.90
71084;DHT22;58741;52.672;13.548;2023-07-31T10:53:38;18.60;99.90
71084;DHT22;58741;52.672;13.548;2023-07-31T10:56:10;18.60;99.90
71084;DHT22;58741;52.672;13.548;2023-07-31T10:58:44;18.60;99.90
71084;DHT22;58741;52.672;13.548;2023-07-31T11:01:09;18.50;99.90
71084;DHT22;58741;52.672;13.548;2023-07-31T11:03:48;18.60;99.90
71084;DHT22;58741;52.672;13.548;2023-07-31T11:06:17;18.60;99.90
71084;DHT22;58741;52.672;13.548;2023-07-31T11:11:11;18.70;99.90
71084;DHT22;58741;52.672;13.548;2023-07-31T11:13:40;18.80;99.90
71084;DHT22;58741;52.672;13.548;2023-07-31T11:16:07;18.90;99.90
71084;DHT22;58741;52.672;13.548;2023-07-31T11:18:33;18.90;99.90
71084;DHT22;58741;52.672;13.548;2023-07-31T11:20:58;19.10;99.90
71084;DHT22;58741;52.672;13.548;2023-07-31T11:23:24;19.20;99.90
71084;DHT22;58741;52.672;13.548;2023-07-31T11:25:50;19.40;99.90
71084;DHT22;58741;52.672;13.548;2023-07-31T11:28:17;19.50;99.90
71084;DHT22;58741;52.672;13.548;2023-07-31T11:30:44;19.60;99.90
71084;DHT22;58741;52.672;13.548;2023-07-31T11:33:11;19.60;99.90
71084;DHT22;58741;52.672;13.548;2023-07-31T11:35:45;19.70;99.90
71084;DHT22;58741;52.672;13.548;2023-07-31T11:38:32;19.60;99.90
71084;DHT22;58741;52.672;13.548;2023-07-31T11:41:03;19.70;99.90
71084;DHT22;58741;52.672;13.548;2023-07-31T11:43:29;19.70;99.90
71084;DHT22;58741;52.672;13.548;2023-07-31T11:45:55;19.80;99.90
71084;DHT22;58741;52.672;13.548;2023-07-31T11:48:29;19.80;99.90
71084;DHT22;58741;52.672;13.548;2023-07-31T11:51:02;19.90;99.90
71084;DHT22;58741;52.672;13.548;2023-07-31T11:53:38;19.90;99.90
71084;DHT22;58741;52.672;13.548;2023-07-31T11:56:07;19.90;99.90
71084;DHT22;58741;52.672;13.548;2023-07-31T11:58:34;20.00;99.90
71084;DHT22;58741;52.672;13.548;2023-07-31T12:01:00;20.10;99.90
71084;DHT22;58741;52.672;13.548;2023-07-31T12:03:27;20.20;99.90
71084;DHT22;58741;52.672;13.548;2023-07-31T12:05:53;20.30;99.90
71084;DHT22;58741;52.672;13.548;2023-07-31T12:08:21;20.30;99.90
71084;DHT22;58741;52.672;13.548;2023-07-31T12:10:50;20.30;99.90
71084;DHT22;58741;52.672;13.548;2023-07-31T12:13:26;20.30;99.90
71084;DHT22;58741;52.672;13.548;2023-07-31T12:15:55;20.20;99.90
71084;DHT22;58741;52.672;13.548;2023-07-31T12:18:23;20.10;99.90
71084;DHT22;58741;52.672;13.548;2023-07-31T12:20:54;20.00;99.90
71084;DHT22;58741;52.672;13.548;2023-07-31T12:23:26;19.90;99.90
71084;DHT22;58741;52.672;13.548;2023-07-31T12:26:09;19.90;99.90
71084;DHT22;58741;52.672;13.548;2023-07-31T12:28:36;19.80;99.90
71084;DHT22;58741;52.672;13.548;2023-07-31T12:31:04;19.80;99.90
71084;DHT22;58741;52.672;13.548;2023-07-31T12:33:31;19.80;99.90
71084;DHT22;58741;52.672;13.548;2023-07-31T12:35:59;19.70;99.90
71084;DHT22;58741;52.672;13.548;2023-07-31T12:38:25;19.60;99.90
71084;DHT22;58741;52.672;13.548;2023-07-31T12:40:51;19.60;99.90
71084;DHT22;58741;52.672;13.548;2023-07-31T12:43:16;19.40;99.90
71084;DHT22;58741;52.672;13.548;2023-07-31T12:45:42;19.30;99.90
71084;DHT22;58741;52.672;13.548;2023-07-31T12:48:08;19.30;99.90
71084;DHT22;58741;52.672;13.548;2023-07-31T12:50:33;19.40;99.90
71084;DHT22;58741;52.672;13.548;2023-07-31T12:53:02;19.40;99.90
71084;DHT22;58741;52.672;13.548;2023-07-31T12:55:28;19.40;99.90
71084;DHT22;58741;52.672;13.548;2023-07-31T12:57:54;19.50;99.90
71084;DHT22;58741;52.672;13.548;2023-07-31T13:00:19;19.40;99.90
71084;DHT22;58741;52.672;13.548;2023-07-31T13:02:45;19.30;99.90
71084;DHT22;58741;52.672;13.548;2023-07-31T13:05:11;19.40;99.90
71084;DHT22;58741;52.672;13.548;2023-07-31T13:07:36;19.30;99.90
71084;DHT22;58741;52.672;13.548;2023-07-31T13:10:02;19.30;99.90
71084;DHT22;58741;52.672;13.548;2023-07-31T13:12:27;19.20;99.90
71084;DHT22;58741;52.672;13.548;2023-07-31T13:14:53;19.10;99.90
71084;DHT22;58741;52.672;13.548;2023-07-31T13:17:18;19.00;99.90
71084;DHT22;58741;52.672;13.548;2023-07-31T13:19:44;19.10;99.90
71084;DHT22;58741;52.672;13.548;2023-07-31T13:22:10;19.10;99.90
71084;DHT22;58741;52.672;13.548;2023-07-31T13:24:35;19.10;99.90
71084;DHT22;58741;52.672;13.548;2023-07-31T13:27:01;19.20;99.90
71084;DHT22;58741;52.672;13.548;2023-07-31T13:29:27;19.30;99.90
71084;DHT22;58741;52.672;13.548;2023-07-31T13:31:52;19.40;99.90
71084;DHT22;58741;52.672;13.548;2023-07-31T13:34:18;19.50;99.90
71084;DHT22;58741;52.672;13.548;2023-07-31T13:36:44;19.50;99.90
71084;DHT22;58741;52.672;13.548;2023-07-31T13:39:09;19.50;99.90
71084;DHT22;58741;52.672;13.548;2023-07-31T13:41:35;19.60;99.90
71084;DHT22;58741;52.672;13.548;2023-07-31T13:44:00;19.60;99.90
71084;DHT22;58741;52.672;13.548;2023-07-31T13:46:26;19.60;99.90
71084;DHT22;58741;52.672;13.548;2023-07-31T13:48:52;19.70;99.90
71084;DHT22;58741;52.672;13.548;2023-07-31T13:51:21;19.90;99.90
71084;DHT22;58741;52.672;13.548;2023-07-31T13:53:47;19.90;99.90
71084;DHT22;58741;52.672;13.548;2023-07-31T13:56:12;20.10;99.90
71084;DHT22;58741;52.672;13.548;2023-07-31T13:58:38;20.10;99.90
71084;DHT22;58741;52.672;13.548;2023-07-31T14:01:03;20.10;99.90
71084;DHT22;58741;52.672;13.548;2023-07-31T14:03:30;20.10;99.90
71084;DHT22;58741;52.672;13.548;2023-07-31T14:05:56;20.20;99.90
71084;DHT22;58741;52.672;13.548;2023-07-31T14:08:21;20.30;99.90
71084;DHT22;58741;52.672;13.548;2023-07-31T14:10:47;20.40;99.90
71084;DHT22;58741;52.672;13.548;2023-07-31T14:13:13;20.50;99.90
71084;DHT22;58741;52.672;13.548;2023-07-31T14:15:41;20.60;99.90
71084;DHT22;58741;52.672;13.548;2023-07-31T14:18:07;20.70;99.90
71084;DHT22;58741;52.672;13.548;2023-07-31T14:20:33;20.70;99.90
71084;DHT22;58741;52.672;13.548;2023-07-31T14:22:58;20.80;99.90
71084;DHT22;58741;52.672;13.548;2023-07-31T14:25:24;20.80;99.90
71084;DHT22;58741;52.672;13.548;2023-07-31T14:27:50;20.90;99.90
71084;DHT22;58741;52.672;13.548;2023-07-31T14:30:16;20.90;99.90
71084;DHT22;58741;52.672;13.548;2023-07-31T14:32:42;20.80;99.90
71084;DHT22;58741;52.672;13.548;2023-07-31T14:35:08;20.80;99.90
71084;DHT22;58741;52.672;13.548;2023-07-31T14:37:37;20.80;99.90
71084;DHT22;58741;52.672;13.548;2023-07-31T14:40:04;20.80;99.90
71084;DHT22;58741;52.672;13.548;2023-07-31T14:42:29;20.70;99.90
71084;DHT22;58741;52.672;13.548;2023-07-31T14:44:55;20.70;99.90
71084;DHT22;58741;52.672;13.548;2023-07-31T14:47:21;20.70;99.90
71084;DHT22;58741;52.672;13.548;2023-07-31T14:49:46;20.70;99.90
71084;DHT22;58741;52.672;13.548;2023-07-31T14:52:12;20.60;99.90
71084;DHT22;58741;52.672;13.548;2023-07-31T14:54:37;20.60;99.90
71084;DHT22;58741;52.672;13.548;2023-07-31T14:57:03;20.60;99.90
71084;DHT22;58741;52.672;13.548;2023-07-31T14:59:29;20.60;99.90
71084;DHT22;58741;52.672;13.548;2023-07-31T15:01:54;20.60;99.90
71084;DHT22;58741;52.672;13.548;2023-07-31T15:04:20;20.50;99.90
71084;DHT22;58741;52.672;13.548;2023-07-31T15:06:47;20.50;99.90
71084;DHT22;58741;52.672;13.548;2023-07-31T15:09:12;20.50;99.90
71084;DHT22;58741;52.672;13.548;2023-07-31T15:11:38;20.40;99.90
71084;DHT22;58741;52.672;13.548;2023-07-31T15:14:04;20.40;99.90
71084;DHT22;58741;52.672;13.548;2023-07-31T15:16:29;20.40;99.90
71084;DHT22;58741;52.672;13.548;2023-07-31T15:18:56;20.40;99.90